San Leandro, CA (94577)

5:39 PM PDT on August 28, 2015 (GMT -0700)
Roosevelt Elementary | | Change Station
CLOSE
Current Station
Personal Weather Station
Location: San Leandro, CA
Elevation: 66 ft
Nearby Weather Stations

Elev 66 ft 37.74 °N, 122.15 °W | Updated 9 minutes ago

Partly Cloudy
Partly Cloudy
79.5 °F
Feels Like 80 °F
N
8.3
Wind Variable Wind from WSW

Today
High -- | Low -- °F
--% Chance of Precip.
Yesterday
High -- | Low -- °F
Precip. -- in
6:35 AM 7:43 PM
Waxing Gibbous, 99% visible
Pressure 29.86 in
Visibility 10.0 miles
Clouds Scattered Clouds 18000 ft
Mostly Cloudy 20000 ft
Heat Index 80 °F
Dew Point 60 °F
Humidity 51%
Rainfall 0.00 in
Snow Depth Not available.
UV 2 out of 12
Pollen 6.70 out of 12
Air Quality Not available.
Flu Activity Not available.
METAR KOAK 282353Z 29020KT 10SM SCT180 BKN200 27/15 A2986 RMK AO2 SLP110 T02670150 10328 20261 55008
Pressure 29.86 in
Visibility 10.0 miles
Clouds Scattered Clouds 18000 ft
Mostly Cloudy 20000 ft
Heat Index 80 °F
Dew Point 60 °F
Humidity 51%
Rainfall 0.00 in
Snow Depth Not available.
UV 2 out of 12
Pollen 6.70 out of 12
Air Quality Not available.
Flu Activity Not available.
METAR KOAK 282353Z 29020KT 10SM SCT180 BKN200 27/15 A2986 RMK AO2 SLP110 T02670150 10328 20261 55008

10-Day Weather Forecast

×

Almanac

Astronomy

Aug. 28, 2015 Rise Set
Actual Time
Civil Twilight
Nautical Twilight
Astronomical Twilight
Moon
Length of Visible Light
Length of Day
Tomorrow will be .
, % of the Moon is Illuminated

Today's Extremes

State Highs State Lows

Community

WunderPhotos

Upload Photos

1,850,548 photos uploaded!

WunderBlogs® & News

Nearby

Air Quality

  Air Quality AQ Index Pollutant
Not available.

Snow Depth

Station Depth Elevation

Earthquake Activity

City Distance Mag. Time & Date
Minimum magnitude displayed is 2.5.

Coastal Water Temperatures

Place Temperature

Stations

Nearby Weather Stations

Station Location Temp. Windchill Dew Point Humidity Wind Precip. Elev Updated Type